Aérodrome :
LOGIN :

S'inscrire | Disclaimer

   EN    FR    IT 

 










Légende :    VFR   VFR Marginal   IFR   IFR Intensif   IFR Très Intensif
Visi : 
Plafond : 
>= 8 km
>= 3000ft
5 à 8 km
1000 à 3000 ft
1500m à 5 km
500 à 1000 ft
800 à 1500m
200 à 500 ft
< 800m
< 200 ft
Symboles :   Orages  Brouillard  Fortes neiges  Fortes précipitations  Vent > 20 kt
SIGMETs :   Divers  Orages  Givrage  Turbulence  Onde Orograph.  Cendres Volcan.






- Altitude de l'aérodrome : 257 ft
- Code IATA : MAN


EGCC - Manchester

DERNIER METAR :
  • 021920Z AUTO 30006KT 270V330 9999 NCD 20/08 Q1015

METARs EXPIRÉS :
  • 021850Z AUTO 29009KT 9999 NCD 20/07 Q1015 NOSIG
  • 021820Z AUTO 30008KT 9999 NCD 21/07 Q1016 NOSIG
  • 021750Z AUTO 29008KT 9999 NCD 21/08 Q1016 NOSIG
  • 021720Z AUTO 29010KT 9999 NCD 21/08 Q1016
  • 021650Z AUTO 29011KT 260V320 9999 NCD 23/07 Q1016
  • 021620Z AUTO 30011KT 9999 NCD 23/07 Q1017 NOSIG

TAF TAF EGCC
Valide du 02 à 18h jusqu'au 04 à 00h UTC


021700Z 0218/0324 31009KT CAVOK
BECMG 0221/0224 BKN020
PROB30
TEMPO 0221/0223 8000 -SHRA
TEMPO 0223/0312 6000 RA BKN012
PROB30
TEMPO 0223/0310 3000 +RA BKN007
BECMG 0307/0310 04010KT
TEMPO 0312/0318 8000 -RA
PROB30
TEMPO 0312/0315 SHRA BKN012
ATIS : +44 161 499 2324



MET'MAP, la Météo Aéronautique d'un coup d'oeil ! - Copyright ORBIFLY Décembre 2007 - Disclaimer

ORBIFLY MET'MAP TEAM :

Programmation & Développement : Alexandra Zaïnal
Sur une idée originale de : Baudouin d'Aumeries
Assistance à la programmation : Marc-Olivier Méhu
Soutien technique & logistique : Manuel Goepfert

Contact : metmap@orbifly.com




SOURCES & CREDITS :

   NOAA